Itatiba, Brazil
Current Conditions -  °F | °C
As of 11:00 PM on Tuesday 21 Oct 2014 (Local Time) from SBKP Reporting Station
Scattered Clouds Scattered Clouds  
Wind Chill: 64°   Ceiling: Unl
Heat Index: 64°   Visibility: 6mi
Dew Point: 50°   Wind: 18mph
Humidity: 59%   Direction: 140°SE
Pressure: 30.15"   Gusts: NA
Location:  23.01°S, 46.84°W
Report Text: SBKP 220100Z 14016KT 9999 SCT045 18/10 Q1021
Loading
Personal Weather Stations






























Interactive Weather Map New forecast layout! Learn more

10-Day Weather Forecast

Advertisements
Track Severe Weather on mobile